createdAt,value
2022-09-20T00:00:56.087Z,88.51
2022-09-20T00:01:55.962Z,88.62
2022-09-20T00:02:56.427Z,88.62
2022-09-20T00:03:56.185Z,88.62
2022-09-20T00:04:55.923Z,88.62
2022-09-20T00:05:56.433Z,88.72
2022-09-20T00:06:56.120Z,88.92
2022-09-20T00:07:56.010Z,88.92
2022-09-20T00:08:56.167Z,88.62
2022-09-20T00:09:56.358Z,88.62
2022-09-20T00:10:55.930Z,88.62
2022-09-20T00:11:55.864Z,88.31
2022-09-20T00:12:55.812Z,88.10
2022-09-20T00:13:55.849Z,88.21
2022-09-20T00:14:55.768Z,88.21
2022-09-20T00:15:55.846Z,88.51
2022-09-20T00:16:56.058Z,88.62
2022-09-20T00:17:55.915Z,88.41
2022-09-20T00:18:55.847Z,88.31
2022-09-20T00:19:55.880Z,88.41
2022-09-20T00:20:55.762Z,88.62
2022-09-20T00:21:55.649Z,88.72
2022-09-20T00:22:55.722Z,88.72
2022-09-20T00:23:55.600Z,88.62
2022-09-20T00:24:55.566Z,88.51
2022-09-20T00:25:55.788Z,88.31
2022-09-20T00:26:55.795Z,88.31
2022-09-20T00:27:55.593Z,88.31
2022-09-20T00:28:55.524Z,88.21
2022-09-20T00:30:05.048Z,88.17
2022-09-20T00:30:55.466Z,87.90
2022-09-20T00:31:55.858Z,87.70
2022-09-20T00:32:55.507Z,87.90
2022-09-20T00:33:55.496Z,88.10
2022-09-20T00:34:55.515Z,87.85
2022-09-20T00:35:55.426Z,87.96
2022-09-20T00:36:55.585Z,87.96
2022-09-20T00:37:55.575Z,87.85
2022-09-20T00:38:55.354Z,87.76
2022-09-20T00:39:55.487Z,87.85
2022-09-20T00:40:55.533Z,88.06
2022-09-20T00:41:55.820Z,88.06
2022-09-20T00:42:56.207Z,88.17
2022-09-20T00:43:55.713Z,88.17
2022-09-20T00:44:55.630Z,88.27
2022-09-20T00:45:55.461Z,88.37
2022-09-20T00:46:55.457Z,88.57
2022-09-20T00:47:55.277Z,88.82
2022-09-20T00:48:55.545Z,88.82
2022-09-20T00:49:55.353Z,88.41
2022-09-20T00:50:55.387Z,88.31
2022-09-20T00:51:55.253Z,88.00
2022-09-20T00:52:55.484Z,87.79
2022-09-20T00:53:55.583Z,87.79
2022-09-20T00:54:55.649Z,88.00
2022-09-20T00:55:55.281Z,88.21
2022-09-20T00:56:55.184Z,88.10
2022-09-20T00:57:55.226Z,88.51
2022-09-20T00:58:55.530Z,88.41
2022-09-20T00:59:55.202Z,88.21
2022-09-20T01:00:55.482Z,88.10
2022-09-20T01:01:55.160Z,88.21
2022-09-20T01:02:55.114Z,88.10
2022-09-20T01:03:55.143Z,88.51
2022-09-20T01:04:55.251Z,88.51
2022-09-20T01:05:55.035Z,88.51
2022-09-20T01:06:55.684Z,88.41
2022-09-20T01:07:55.083Z,88.21
2022-09-20T01:08:55.275Z,88.00
2022-09-20T01:09:55.303Z,88.10
2022-09-20T01:10:55.083Z,88.21
2022-09-20T01:11:55.425Z,88.21
2022-09-20T01:12:55.198Z,88.10
2022-09-20T01:13:55.210Z,88.31
2022-09-20T01:14:54.966Z,88.41
2022-09-20T01:15:55.025Z,88.10
2022-09-20T01:16:55.155Z,88.00
2022-09-20T01:17:55.252Z,88.10
2022-09-20T01:18:55.381Z,88.10
2022-09-20T01:19:54.957Z,88.31
2022-09-20T01:20:55.105Z,88.10
2022-09-20T01:21:55.064Z,88.10
2022-09-20T01:22:55.434Z,88.10
2022-09-20T01:23:54.862Z,88.21
2022-09-20T01:24:55.061Z,88.31
2022-09-20T01:25:54.872Z,88.31
2022-09-20T01:26:54.854Z,88.21
2022-09-20T01:27:55.105Z,88.41
2022-09-20T01:28:54.817Z,88.41
2022-09-20T01:29:54.806Z,88.31
2022-09-20T01:30:55.015Z,88.41
2022-09-20T01:31:54.897Z,88.51
2022-09-20T01:32:54.797Z,88.51
2022-09-20T01:33:55.270Z,88.62
2022-09-20T01:34:54.657Z,88.51
2022-09-20T01:35:54.805Z,88.41
2022-09-20T01:36:54.740Z,88.41
2022-09-20T01:37:54.764Z,88.72
2022-09-20T01:38:54.558Z,88.72
2022-09-20T01:39:54.800Z,88.62
2022-09-20T01:40:55.020Z,88.51
2022-09-20T01:41:55.251Z,88.51
2022-09-20T01:42:54.851Z,88.72
2022-09-20T01:43:54.511Z,88.66
2022-09-20T01:44:55.123Z,88.66
2022-09-20T01:45:54.975Z,89.17
2022-09-20T01:46:55.434Z,89.07
2022-09-20T01:47:54.696Z,89.07
2022-09-20T01:48:55.097Z,89.07
2022-09-20T01:49:54.631Z,88.86
2022-09-20T01:50:56.280Z,88.76
2022-09-20T01:51:54.521Z,88.76
2022-09-20T01:52:54.661Z,88.86
2022-09-20T01:53:54.457Z,88.86
2022-09-20T01:54:54.483Z,88.56
2022-09-20T01:55:54.553Z,88.86
2022-09-20T01:56:54.385Z,88.96
2022-09-20T01:57:54.488Z,89.07
2022-09-20T01:59:12.771Z,88.96
2022-09-20T01:59:55.438Z,88.96
2022-09-20T02:00:54.686Z,88.86
2022-09-20T02:01:54.600Z,88.96
2022-09-20T02:02:54.452Z,88.76
2022-09-20T02:03:54.796Z,88.96
2022-09-20T02:04:54.424Z,89.17
2022-09-20T02:05:54.619Z,89.27
2022-09-20T02:06:54.760Z,89.07
2022-09-20T02:07:54.460Z,89.07
2022-09-20T02:08:54.340Z,89.07
2022-09-20T02:09:54.476Z,89.07
2022-09-20T02:10:54.596Z,89.37
2022-09-20T02:11:54.625Z,89.37
2022-09-20T02:12:54.338Z,89.27
2022-09-20T02:13:54.231Z,88.86
2022-09-20T02:14:54.648Z,88.96
2022-09-20T02:15:54.356Z,89.17
2022-09-20T02:16:54.340Z,89.07
2022-09-20T02:17:54.450Z,88.96
2022-09-20T02:18:54.221Z,89.07
2022-09-20T02:19:54.199Z,89.27
2022-09-20T02:20:54.244Z,89.07
2022-09-20T02:21:54.447Z,88.86
2022-09-20T02:22:54.123Z,88.86
2022-09-20T02:23:54.360Z,88.96
2022-09-20T02:24:53.996Z,88.76
2022-09-20T02:25:54.105Z,88.56
2022-09-20T02:26:54.089Z,88.56
2022-09-20T02:27:54.226Z,88.66
2022-09-20T02:28:54.153Z,88.76
2022-09-20T02:29:54.264Z,88.86
2022-09-20T02:30:54.678Z,88.96
2022-09-20T02:31:54.086Z,89.01
2022-09-20T02:32:54.117Z,88.90
2022-09-20T02:33:54.083Z,88.80
2022-09-20T02:34:53.924Z,88.90
2022-09-20T02:35:54.590Z,89.01
2022-09-20T02:36:54.011Z,89.11
2022-09-20T02:37:54.400Z,89.21
2022-09-20T02:38:54.156Z,89.11
2022-09-20T02:39:53.996Z,89.01
2022-09-20T02:40:54.081Z,89.11
2022-09-20T02:41:54.232Z,89.11
2022-09-20T02:42:53.847Z,89.01
2022-09-20T02:43:54.363Z,88.90
2022-09-20T02:44:54.183Z,89.01
2022-09-20T02:45:53.983Z,89.11
2022-09-20T02:46:54.092Z,89.01
2022-09-20T02:47:54.050Z,88.90
2022-09-20T02:48:54.169Z,88.90
2022-09-20T02:49:53.729Z,89.01
2022-09-20T02:50:54.155Z,89.21
2022-09-20T02:51:53.855Z,89.11
2022-09-20T02:52:54.658Z,89.11
2022-09-20T02:53:53.995Z,89.11
2022-09-20T02:54:54.202Z,89.42
2022-09-20T02:55:54.896Z,89.42
2022-09-20T02:56:54.788Z,89.52
2022-09-20T02:57:54.570Z,89.62
2022-09-20T02:58:54.154Z,89.42
2022-09-20T02:59:53.987Z,89.31
2022-09-20T03:00:53.985Z,89.11
2022-09-20T03:01:53.737Z,89.11
2022-09-20T03:02:53.944Z,89.21
2022-09-20T03:03:53.780Z,89.31
2022-09-20T03:04:53.659Z,89.31
2022-09-20T03:05:53.983Z,89.42
2022-09-20T03:06:54.627Z,89.52
2022-09-20T03:07:54.809Z,89.52
2022-09-20T03:08:53.721Z,89.42
2022-09-20T03:09:54.092Z,89.52
2022-09-20T03:10:54.182Z,89.83
2022-09-20T03:11:54.127Z,89.72
2022-09-20T03:12:53.605Z,89.83
2022-09-20T03:13:53.606Z,89.83
2022-09-20T03:14:53.762Z,89.72
2022-09-20T03:15:53.980Z,89.83
2022-09-20T03:16:53.665Z,89.72
2022-09-20T03:17:53.835Z,89.83
2022-09-20T03:18:53.435Z,89.93
2022-09-20T03:19:53.515Z,89.72
2022-09-20T03:20:55.045Z,89.72
2022-09-20T03:21:53.476Z,89.62
2022-09-20T03:22:54.007Z,89.42
2022-09-20T03:23:53.339Z,89.42
2022-09-20T03:24:53.759Z,89.62
2022-09-20T03:25:53.816Z,89.72
2022-09-20T03:26:58.880Z,89.42
2022-09-20T03:27:53.504Z,89.21
2022-09-20T03:28:54.267Z,89.31
2022-09-20T03:29:53.214Z,89.31
2022-09-20T03:30:53.576Z,89.11
2022-09-20T03:31:53.649Z,89.11
2022-09-20T03:32:53.662Z,89.01
2022-09-20T03:33:53.402Z,88.90
2022-09-20T03:34:53.271Z,89.21
2022-09-20T03:35:53.142Z,89.11
2022-09-20T03:36:53.365Z,89.11
2022-09-20T03:37:53.316Z,89.31
2022-09-20T03:38:53.199Z,89.42
2022-09-20T03:39:53.032Z,89.42
2022-09-20T03:40:53.700Z,89.42
2022-09-20T03:41:53.300Z,89.31
2022-09-20T03:42:53.093Z,89.31
2022-09-20T03:43:52.995Z,89.62
2022-09-20T03:44:53.099Z,89.52
2022-09-20T03:45:53.157Z,89.52
2022-09-20T03:46:53.851Z,89.72
2022-09-20T03:47:53.283Z,89.76
2022-09-20T03:48:53.146Z,89.97
2022-09-20T03:49:53.249Z,90.18
2022-09-20T03:50:53.519Z,90.08
2022-09-20T03:51:53.843Z,90.18
2022-09-20T03:52:53.536Z,90.08
2022-09-20T03:53:56.407Z,90.08
2022-09-20T03:54:53.460Z,90.08
2022-09-20T03:55:53.024Z,89.87
2022-09-20T03:57:08.163Z,89.76
2022-09-20T03:58:56.748Z,89.87
2022-09-20T04:00:04.101Z,89.97
2022-09-20T04:00:52.682Z,90.08
2022-09-20T04:01:51.766Z,89.97
2022-09-20T04:02:51.148Z,89.97
2022-09-20T04:03:51.318Z,90.08
2022-09-20T04:04:51.470Z,90.08
2022-09-20T04:05:51.016Z,90.22
2022-09-20T04:06:51.826Z,90.38
2022-09-20T04:07:51.333Z,90.42
2022-09-20T04:08:51.617Z,90.42
2022-09-20T04:09:51.433Z,90.42
2022-09-20T04:10:50.975Z,90.42
2022-09-20T04:11:50.952Z,90.53
2022-09-20T04:12:51.066Z,90.83
2022-09-20T04:13:51.239Z,90.83
2022-09-20T04:14:51.318Z,90.63
2022-09-20T04:15:51.003Z,90.73
2022-09-20T04:16:52.002Z,90.73
2022-09-20T04:17:50.936Z,90.73
2022-09-20T04:18:51.585Z,90.83
2022-09-20T04:19:51.059Z,90.73
2022-09-20T04:20:51.459Z,90.73
2022-09-20T04:21:51.100Z,90.73
2022-09-20T04:22:50.917Z,90.73
2022-09-20T04:23:51.160Z,90.78
2022-09-20T04:24:51.458Z,90.83
2022-09-20T04:25:51.608Z,90.73
2022-09-20T04:26:50.865Z,90.63
2022-09-20T04:27:50.704Z,90.42
2022-09-20T04:28:51.171Z,90.53
2022-09-20T04:29:50.851Z,90.57
2022-09-20T04:30:50.803Z,90.57
2022-09-20T04:31:54.144Z,90.67
2022-09-20T04:32:51.933Z,90.88
2022-09-20T04:33:52.149Z,90.88
2022-09-20T04:34:52.668Z,90.88
2022-09-20T04:35:52.207Z,90.78
2022-09-20T04:36:51.547Z,90.78
2022-09-20T04:37:51.007Z,90.57
2022-09-20T04:38:51.658Z,90.57
2022-09-20T04:40:01.597Z,90.57
2022-09-20T04:40:52.248Z,90.57
2022-09-20T04:41:50.866Z,90.67
2022-09-20T04:42:50.886Z,90.78
2022-09-20T04:43:51.078Z,90.67
2022-09-20T04:44:50.478Z,90.67
2022-09-20T04:45:50.365Z,90.67
2022-09-20T04:46:55.711Z,90.57
2022-09-20T04:47:50.782Z,90.57
2022-09-20T04:48:51.065Z,90.57
2022-09-20T04:49:50.400Z,90.47
2022-09-20T04:50:50.285Z,90.36
2022-09-20T04:51:50.863Z,90.26
2022-09-20T04:52:52.482Z,90.26
2022-09-20T04:53:51.619Z,90.36
2022-09-20T04:54:51.540Z,90.47
2022-09-20T04:56:03.095Z,90.36
2022-09-20T04:57:25.652Z,90.36
2022-09-20T05:01:34.735Z,91.23
2022-09-20T05:02:10.045Z,91.23
2022-09-20T05:03:09.931Z,91.23
2022-09-20T05:04:09.779Z,91.23
2022-09-20T05:05:11.465Z,91.33
2022-09-20T05:06:09.823Z,91.33
2022-09-20T05:07:09.937Z,91.33
2022-09-20T05:08:09.592Z,91.33
2022-09-20T05:09:09.929Z,91.23
2022-09-20T05:10:10.025Z,91.23
2022-09-20T05:11:10.467Z,91.33
2022-09-20T05:12:09.857Z,91.44
2022-09-20T05:13:10.543Z,91.64
2022-09-20T05:14:09.843Z,91.85
2022-09-20T05:15:09.444Z,91.74
2022-09-20T05:16:10.598Z,91.64
2022-09-20T05:17:09.690Z,91.64
2022-09-20T05:18:10.022Z,91.53
2022-09-20T05:19:10.555Z,91.44
2022-09-20T05:20:10.826Z,91.53
2022-09-20T05:21:11.667Z,91.53
2022-09-20T05:22:09.848Z,91.74
2022-09-20T05:23:11.348Z,91.85
2022-09-20T05:24:12.065Z,91.85
2022-09-20T05:25:11.657Z,91.85
2022-09-20T05:26:09.404Z,91.85
2022-09-20T05:27:09.912Z,91.95
2022-09-20T05:28:11.436Z,91.95
2022-09-20T05:29:10.315Z,92.16
2022-09-20T05:30:10.452Z,92.16
2022-09-20T05:31:09.715Z,92.30
2022-09-20T05:32:10.254Z,92.36
2022-09-20T05:33:09.422Z,92.36
2022-09-20T05:34:09.965Z,92.36
2022-09-20T05:35:09.975Z,92.25
2022-09-20T05:36:09.489Z,92.05
2022-09-20T05:37:09.735Z,92.25
2022-09-20T05:38:10.157Z,92.25
2022-09-20T05:39:09.896Z,92.16
2022-09-20T05:40:10.698Z,92.16
2022-09-20T05:41:09.496Z,92.16
2022-09-20T05:42:11.155Z,92.16
2022-09-20T05:43:12.710Z,92.16
2022-09-20T05:44:09.373Z,92.36
2022-09-20T05:45:09.228Z,92.25
2022-09-20T05:46:10.771Z,92.16
2022-09-20T05:47:09.919Z,92.16
2022-09-20T05:48:12.833Z,92.16
2022-09-20T05:49:11.957Z,92.25
2022-09-20T05:50:09.218Z,92.36
2022-09-20T05:51:09.361Z,92.36
2022-09-20T05:52:09.758Z,92.46
2022-09-20T05:53:11.479Z,92.46
2022-09-20T05:54:09.534Z,92.57
2022-09-20T05:55:10.417Z,92.46
2022-09-20T05:56:13.048Z,92.46
2022-09-20T05:57:09.393Z,92.57
2022-09-20T05:58:09.195Z,92.46
2022-09-20T05:59:11.610Z,92.46
2022-09-20T06:00:09.923Z,92.36
2022-09-20T06:01:08.876Z,92.46
2022-09-20T06:02:09.683Z,92.57
2022-09-20T06:03:09.258Z,92.67
2022-09-20T06:04:08.732Z,92.57
2022-09-20T06:05:09.328Z,92.57
2022-09-20T06:06:08.698Z,92.67
2022-09-20T06:07:08.727Z,92.57
2022-09-20T06:08:09.015Z,92.63
2022-09-20T06:09:08.554Z,92.52
2022-09-20T06:10:08.688Z,92.52
2022-09-20T06:11:08.497Z,92.52
2022-09-20T06:12:08.666Z,92.42
2022-09-20T06:13:11.151Z,92.32
2022-09-20T06:14:08.992Z,92.21
2022-09-20T06:15:08.997Z,92.21
2022-09-20T06:16:10.749Z,92.21
2022-09-20T06:17:09.447Z,92.32
2022-09-20T06:18:09.979Z,92.21
2022-09-20T06:19:11.070Z,92.11
2022-09-20T06:20:11.587Z,92.01
2022-09-20T06:21:08.776Z,92.11
2022-09-20T06:22:11.131Z,92.42
2022-09-20T06:23:09.357Z,92.52
2022-09-20T06:24:08.377Z,92.58
2022-09-20T06:25:11.916Z,92.48
2022-09-20T06:26:09.431Z,92.58
2022-09-20T06:27:08.959Z,92.79
2022-09-20T06:28:10.010Z,92.79
2022-09-20T06:29:09.254Z,92.79
2022-09-20T06:35:59.779Z,92.17
2022-09-20T06:36:55.779Z,92.03
2022-09-20T06:37:50.656Z,92.03
2022-09-20T06:38:50.586Z,91.93
2022-09-20T06:39:50.643Z,92.03
2022-09-20T06:40:52.043Z,92.03
2022-09-20T06:41:52.168Z,91.93
2022-09-20T06:42:52.703Z,91.82
2022-09-20T06:43:50.601Z,91.72
2022-09-20T06:44:51.204Z,91.61
2022-09-20T06:45:50.991Z,91.67
2022-09-20T06:46:52.104Z,91.67
2022-09-20T06:47:50.807Z,91.67
2022-09-20T06:48:50.851Z,91.57
2022-09-20T06:49:50.699Z,91.37
2022-09-20T06:50:50.453Z,91.37
2022-09-20T06:51:50.949Z,91.06
2022-09-20T06:52:50.568Z,91.06
2022-09-20T06:53:50.560Z,91.06
2022-09-20T06:54:50.783Z,91.02
2022-09-20T06:55:50.525Z,91.02
2022-09-20T06:56:50.627Z,91.02
2022-09-20T06:57:50.471Z,90.91
2022-09-20T06:58:50.373Z,90.71
2022-09-20T06:59:50.913Z,90.71
2022-09-20T07:00:50.488Z,90.71
2022-09-20T07:01:50.366Z,90.61
2022-09-20T07:02:50.388Z,90.46
2022-09-20T07:03:50.527Z,90.36
2022-09-20T07:04:50.319Z,90.36
2022-09-20T07:05:50.289Z,90.26
2022-09-20T07:06:50.819Z,90.05
2022-09-20T07:07:50.526Z,89.81
2022-09-20T07:08:50.246Z,89.81
2022-09-20T07:09:50.201Z,89.81
2022-09-20T07:10:50.331Z,89.60
2022-09-20T07:11:50.959Z,89.50
2022-09-20T07:12:50.214Z,89.25
2022-09-20T07:13:50.741Z,89.04
2022-09-20T07:14:50.245Z,88.84
2022-09-20T07:15:50.711Z,88.74
2022-09-20T07:16:50.109Z,88.64
2022-09-20T07:17:50.177Z,88.53
2022-09-20T07:18:50.081Z,88.08
2022-09-20T07:19:51.670Z,87.77
2022-09-20T07:20:50.086Z,87.67
2022-09-20T07:21:50.315Z,87.57
2022-09-20T07:22:50.038Z,87.57
2022-09-20T07:23:50.114Z,87.53
2022-09-20T07:24:50.158Z,87.53
2022-09-20T07:27:16.851Z,87.43
2022-09-20T07:28:17.217Z,87.43
2022-09-20T07:29:16.206Z,87.43
2022-09-20T07:30:14.523Z,87.32
2022-09-20T07:31:15.641Z,86.77
2022-09-20T07:32:16.104Z,86.57
2022-09-20T07:33:14.347Z,86.26
2022-09-20T07:34:14.219Z,86.26
2022-09-20T07:35:14.391Z,86.16
2022-09-20T07:36:17.895Z,86.02
2022-09-20T07:37:14.197Z,86.12
2022-09-20T07:39:35.880Z,85.81
2022-09-20T07:40:32.088Z,85.71
2022-09-20T07:43:17.595Z,85.30
2022-09-20T07:44:13.826Z,85.06
2022-09-20T07:45:03.996Z,84.75
2022-09-20T07:47:37.696Z,83.93
2022-09-20T07:51:08.744Z,83.28
2022-09-20T07:52:12.735Z,82.46
2022-09-20T07:53:13.384Z,82.63
2022-09-20T07:54:12.461Z,82.22
2022-09-20T07:55:11.919Z,81.67
2022-09-20T07:59:54.854Z,81.26
2022-09-20T08:16:11.219Z,75.23
2022-09-20T08:17:23.511Z,75.95
2022-09-20T08:19:18.948Z,76.04
2022-09-20T08:23:22.400Z,75.23
2022-09-20T08:23:52.880Z,73.97
2022-09-20T08:24:52.537Z,73.87
2022-09-20T08:25:50.659Z,72.96
2022-09-20T08:30:48.059Z,72.62
2022-09-20T08:32:32.770Z,73.02
2022-09-20T08:32:45.941Z,72.89
2022-09-20T08:34:22.603Z,72.38
2022-09-20T08:34:49.391Z,72.28
2022-09-20T08:36:25.484Z,71.16
2022-09-20T08:36:46.511Z,71.77
2022-09-20T08:37:44.359Z,72.08
2022-09-20T08:40:01.705Z,71.47
2022-09-20T08:40:54.022Z,70.96
2022-09-20T08:46:09.215Z,70.96
2022-09-20T08:47:10.027Z,71.26
2022-09-20T08:48:04.296Z,71.36
2022-09-20T08:49:10.895Z,70.86
2022-09-20T08:50:10.343Z,71.16
2022-09-20T08:54:22.624Z,70.75
2022-09-20T08:55:19.252Z,70.89
2022-09-20T08:56:16.344Z,71.50
2022-09-20T08:57:29.637Z,70.75
2022-09-20T08:58:31.844Z,70.96
2022-09-20T09:01:03.573Z,70.72
2022-09-20T09:01:29.671Z,70.11
2022-09-20T09:02:30.755Z,70.01
2022-09-20T09:03:28.896Z,69.81
2022-09-20T09:04:29.892Z,69.70
2022-09-20T09:05:39.005Z,69.33
2022-09-20T09:06:30.447Z,69.43
2022-09-20T09:10:14.972Z,71.67
2022-09-20T09:11:15.626Z,70.35
2022-09-20T09:12:11.344Z,70.96
2022-09-20T09:13:11.759Z,70.55
2022-09-20T09:14:18.406Z,70.35
2022-09-20T09:15:48.116Z,70.65
2022-09-20T09:16:40.818Z,71.06
2022-09-20T09:39:23.439Z,73.54
2022-09-20T09:40:21.645Z,73.54
2022-09-20T09:41:29.179Z,73.13
2022-09-20T09:42:23.070Z,72.72
2022-09-20T09:43:21.346Z,72.69
2022-09-20T09:44:21.237Z,72.78
2022-09-20T09:45:21.535Z,72.58
2022-09-20T09:46:21.470Z,72.38
2022-09-20T09:47:21.230Z,72.17
2022-09-20T09:48:30.317Z,71.64
2022-09-20T09:49:25.736Z,71.84
2022-09-20T09:50:21.241Z,71.73
2022-09-20T09:51:21.443Z,70.21
2022-09-20T09:52:22.612Z,70.38
2022-09-20T09:53:27.303Z,69.67
2022-09-20T09:54:21.479Z,69.26
2022-09-20T09:55:27.896Z,69.47
2022-09-20T09:56:22.192Z,69.37
2022-09-20T09:57:26.022Z,69.47
2022-09-20T09:58:31.161Z,68.96
2022-09-20T09:59:28.074Z,68.66
2022-09-20T10:00:27.378Z,69.06
2022-09-20T10:01:24.254Z,69.57
2022-09-20T10:02:21.169Z,68.96
2022-09-20T10:03:21.036Z,67.94
2022-09-20T10:04:21.197Z,67.30
2022-09-20T10:05:21.316Z,67.41
2022-09-20T10:06:25.965Z,68.01
2022-09-20T10:07:21.060Z,68.42
2022-09-20T10:08:22.039Z,68.08
2022-09-20T10:09:21.612Z,67.38
2022-09-20T10:10:26.935Z,65.68
2022-09-20T10:11:28.265Z,65.17
2022-09-20T10:12:21.948Z,66.29
2022-09-20T10:13:21.350Z,66.32
2022-09-20T10:14:20.904Z,66.32
2022-09-20T10:15:20.935Z,67.24
2022-09-20T10:16:20.958Z,67.54
2022-09-20T10:17:20.883Z,68.15
2022-09-20T10:18:20.832Z,68.59
2022-09-20T10:19:25.303Z,68.69
2022-09-20T10:20:20.806Z,68.69
2022-09-20T10:21:20.917Z,68.89
2022-09-20T10:22:21.744Z,69.30
2022-09-20T10:23:58.515Z,69.40
2022-09-20T10:24:24.456Z,68.79
2022-09-20T10:25:22.742Z,69.09
2022-09-20T10:26:22.569Z,69.09
2022-09-20T10:27:20.943Z,69.60
2022-09-20T10:28:21.627Z,69.91
2022-09-20T10:29:20.862Z,70.21
2022-09-20T10:30:20.660Z,69.91
2022-09-20T10:31:25.493Z,69.40
2022-09-20T10:32:21.619Z,68.69
2022-09-20T10:33:21.580Z,68.79
2022-09-20T10:34:23.043Z,68.79
2022-09-20T10:35:21.741Z,69.09
2022-09-20T10:36:21.595Z,68.89
2022-09-20T10:37:20.576Z,68.38
2022-09-20T10:38:25.269Z,68.59
2022-09-20T10:39:42.730Z,67.94
2022-09-20T10:40:20.605Z,67.94
2022-09-20T10:41:21.094Z,67.94
2022-09-20T10:42:20.782Z,68.15
2022-09-20T10:43:21.046Z,67.44
2022-09-20T10:44:21.450Z,67.03
2022-09-20T10:45:53.350Z,67.03
2022-09-20T10:46:32.780Z,66.55
2022-09-20T10:47:24.427Z,65.74
2022-09-20T10:48:21.823Z,65.64
2022-09-20T10:49:23.438Z,66.05
2022-09-20T10:50:22.864Z,65.54
2022-09-20T10:51:43.115Z,65.51
2022-09-20T10:52:20.493Z,64.49
2022-09-20T10:53:20.789Z,65.41
2022-09-20T10:54:21.077Z,65.81
2022-09-20T10:55:20.835Z,65.61
2022-09-20T10:56:23.391Z,65.78
2022-09-20T10:57:25.031Z,65.58
2022-09-20T10:58:23.461Z,65.17
2022-09-20T10:59:23.845Z,65.17
2022-09-20T11:00:27.080Z,64.36
2022-09-20T11:01:24.628Z,63.65
2022-09-20T11:02:23.960Z,63.24
2022-09-20T11:03:20.598Z,62.94
2022-09-20T11:04:20.362Z,61.72
2022-09-20T11:05:21.661Z,61.82
2022-09-20T11:06:23.039Z,62.02
2022-09-20T11:07:21.252Z,62.74
2022-09-20T11:08:23.498Z,63.24
2022-09-20T11:09:23.353Z,63.04
2022-09-20T11:10:20.650Z,63.55
2022-09-20T11:11:32.723Z,63.72
2022-09-20T11:12:20.543Z,64.33
2022-09-20T11:13:21.840Z,64.13
2022-09-20T11:14:20.373Z,64.43
2022-09-20T11:15:21.704Z,63.72
2022-09-20T11:16:20.105Z,64.33
2022-09-20T11:17:20.037Z,62.60
2022-09-20T11:18:20.100Z,60.68
2022-09-20T11:19:23.896Z,60.98
2022-09-20T11:20:20.493Z,60.58
2022-09-20T11:21:36.369Z,61.39
2022-09-20T11:22:22.326Z,61.39
2022-09-20T11:23:21.223Z,61.29
2022-09-20T11:24:25.712Z,60.17
2022-09-20T11:25:29.702Z,60.17
2022-09-20T11:26:23.891Z,60.27
2022-09-20T11:27:22.280Z,60.04
2022-09-20T11:28:19.970Z,59.03
2022-09-20T11:29:21.622Z,59.74
2022-09-20T11:30:25.979Z,59.23
2022-09-20T11:31:25.432Z,58.65
2022-09-20T11:32:23.326Z,58.75
2022-09-20T11:33:25.060Z,56.41
2022-09-20T11:34:42.888Z,57.12
2022-09-20T11:35:26.166Z,56.92
2022-09-20T11:36:39.521Z,56.62
2022-09-20T11:37:24.482Z,57.12
2022-09-20T11:38:21.168Z,57.64
2022-09-20T11:39:22.339Z,57.12
2022-09-20T11:40:23.963Z,55.40
2022-09-20T11:41:20.907Z,55.80
2022-09-20T11:42:19.841Z,56.21
2022-09-20T11:43:20.717Z,56.21
2022-09-20T11:44:24.466Z,56.62
2022-09-20T11:45:20.191Z,56.92
2022-09-20T11:46:21.163Z,56.11
2022-09-20T11:47:42.801Z,56.79
2022-09-20T11:48:29.946Z,56.18
2022-09-20T11:49:42.230Z,56.09
2022-09-20T11:50:21.715Z,57.10
2022-09-20T11:51:20.821Z,56.79
2022-09-20T11:52:30.930Z,56.29
2022-09-20T11:53:22.288Z,57.10
2022-09-20T11:54:20.456Z,54.64
2022-09-20T11:55:21.829Z,54.97
2022-09-20T11:56:19.881Z,55.17
2022-09-20T11:57:19.580Z,55.68
2022-09-20T11:58:20.714Z,55.15
2022-09-20T11:59:30.011Z,55.76
2022-09-20T12:00:20.068Z,55.55
2022-09-20T12:01:28.081Z,55.45
2022-09-20T12:02:19.662Z,54.94
2022-09-20T12:03:34.173Z,56.16
2022-09-20T12:04:38.344Z,55.45
2022-09-20T12:05:22.640Z,55.76
2022-09-20T12:06:19.604Z,55.45
2022-09-20T12:08:51.521Z,55.83
2022-09-20T12:09:50.290Z,55.43
2022-09-20T12:10:55.944Z,56.03
2022-09-20T12:11:50.325Z,56.34
2022-09-20T12:12:50.923Z,56.01
2022-09-20T12:13:49.866Z,56.10
2022-09-20T12:14:48.814Z,56.01
2022-09-20T12:15:49.232Z,55.90
2022-09-20T12:16:51.568Z,56.51
2022-09-20T12:17:49.677Z,56.61
2022-09-20T12:18:55.623Z,55.30
2022-09-20T12:19:50.001Z,56.01
2022-09-20T12:20:48.562Z,56.01
2022-09-20T12:21:49.728Z,56.21
2022-09-20T12:22:50.589Z,56.28
2022-09-20T12:23:48.496Z,56.89
2022-09-20T12:24:48.908Z,55.88
2022-09-20T12:27:24.462Z,56.18
2022-09-20T12:28:28.011Z,56.48
2022-09-20T12:29:05.955Z,56.26
2022-09-20T12:30:20.714Z,56.15
2022-09-20T12:31:10.857Z,56.36
2022-09-20T12:32:11.781Z,55.93
2022-09-20T12:33:14.965Z,55.93
2022-09-20T12:34:07.248Z,57.24
2022-09-20T12:35:06.101Z,57.34
2022-09-20T12:36:05.950Z,56.94
2022-09-20T12:37:08.837Z,56.63
2022-09-20T12:38:06.526Z,56.81
2022-09-20T12:39:07.090Z,57.31
2022-09-20T12:40:06.825Z,56.81
2022-09-20T12:41:05.823Z,56.81
2022-09-20T12:42:06.176Z,57.11
2022-09-20T12:43:09.579Z,57.44
2022-09-20T12:44:07.259Z,57.54
2022-09-20T12:45:07.847Z,57.95
2022-09-20T12:46:12.181Z,57.87
2022-09-20T12:47:06.296Z,58.58
2022-09-20T12:48:08.774Z,58.81
2022-09-20T12:49:06.669Z,59.32
2022-09-20T12:50:05.820Z,59.52
2022-09-20T12:51:05.805Z,60.13
2022-09-20T12:52:06.616Z,60.43
2022-09-20T12:53:09.017Z,60.46
2022-09-20T12:54:16.516Z,60.97
2022-09-20T12:55:10.998Z,61.27
2022-09-20T12:56:05.657Z,61.37
2022-09-20T12:57:08.111Z,61.04
2022-09-20T12:58:11.279Z,60.63
2022-09-20T12:59:06.415Z,60.74
2022-09-20T13:00:11.571Z,60.74
2022-09-20T13:01:13.302Z,60.03
2022-09-20T13:02:10.755Z,59.52
2022-09-20T13:03:15.480Z,59.72
2022-09-20T13:04:05.536Z,60.53
2022-09-20T13:05:05.447Z,59.52
2022-09-20T13:06:08.976Z,59.22
2022-09-20T13:07:07.889Z,59.32
2022-09-20T13:08:15.560Z,59.63
2022-09-20T13:09:32.208Z,59.72
2022-09-20T13:10:05.634Z,59.12
2022-09-20T13:12:26.865Z,59.59
2022-09-20T13:13:24.477Z,59.09
2022-09-20T13:14:24.928Z,59.19
2022-09-20T13:15:23.981Z,58.18
2022-09-20T13:16:33.497Z,58.99
2022-09-20T13:17:51.883Z,58.25
2022-09-20T13:18:32.087Z,58.96
2022-09-20T13:19:26.444Z,57.75
2022-09-20T13:20:25.277Z,58.15
2022-09-20T13:21:26.697Z,57.14
2022-09-20T13:22:24.248Z,57.44
2022-09-20T13:23:24.603Z,58.25
2022-09-20T13:24:23.996Z,58.23
2022-09-20T13:25:25.215Z,58.53
2022-09-20T13:26:33.244Z,58.53
2022-09-20T13:27:24.563Z,57.21
2022-09-20T13:28:32.207Z,56.23
2022-09-20T13:29:24.022Z,56.63
2022-09-20T13:30:25.967Z,55.93
2022-09-20T13:31:25.163Z,56.56
2022-09-20T13:32:24.401Z,56.46
2022-09-20T13:33:23.812Z,57.24
2022-09-20T13:34:24.857Z,56.43
2022-09-20T13:35:26.752Z,56.63
2022-09-20T13:36:28.151Z,56.33
2022-09-20T13:37:30.322Z,56.33
2022-09-20T13:38:31.837Z,56.23
2022-09-20T13:39:24.435Z,54.82
2022-09-20T13:43:24.881Z,55.32
2022-09-20T13:43:45.773Z,54.31
2022-09-20T13:44:45.521Z,54.82
2022-09-20T13:45:47.582Z,55.42
2022-09-20T13:47:19.670Z,55.11
2022-09-20T13:47:56.427Z,52.69
2022-09-20T13:48:44.646Z,52.89
2022-09-20T13:49:46.176Z,52.69
2022-09-20T13:50:54.270Z,51.57
2022-09-20T13:51:47.294Z,51.48
2022-09-20T13:52:56.268Z,51.98
2022-09-20T13:53:51.405Z,51.55
2022-09-20T13:54:48.351Z,50.84
2022-09-20T13:55:45.248Z,50.95
2022-09-20T13:58:11.479Z,51.45
2022-09-20T13:58:51.502Z,52.97
2022-09-20T13:59:46.807Z,53.47
2022-09-20T14:02:29.487Z,53.58
2022-09-20T14:03:12.003Z,54.28
2022-09-20T14:04:33.593Z,54.69
2022-09-20T14:05:11.263Z,54.58
2022-09-20T14:06:23.413Z,54.79
2022-09-20T14:07:42.003Z,55.09
2022-09-20T14:08:11.373Z,55.80
2022-09-20T14:09:29.409Z,55.90
2022-09-20T14:13:25.245Z,55.02
2022-09-20T14:14:22.060Z,54.91
2022-09-20T14:15:09.924Z,54.74
2022-09-20T14:16:21.101Z,55.44
2022-09-20T14:19:12.217Z,55.95
2022-09-20T14:20:03.262Z,55.44
2022-09-20T14:21:13.284Z,56.05
2022-09-20T14:23:34.811Z,55.75
2022-09-20T14:26:20.905Z,56.18
2022-09-20T14:27:11.497Z,56.69
2022-09-20T14:28:11.645Z,56.99
2022-09-20T14:29:42.577Z,57.09